Aérodrome :
LOGIN :

S'inscrire | Disclaimer

   EN    FR    IT 

 










Légende :    VFR   VFR Marginal   IFR   IFR Intensif   IFR Très Intensif
Visi : 
Plafond : 
>= 8 km
>= 3000ft
5 à 8 km
1000 à 3000 ft
1500m à 5 km
500 à 1000 ft
800 à 1500m
200 à 500 ft
< 800m
< 200 ft
Symboles :   Orages  Brouillard  Fortes neiges  Fortes précipitations  Vent > 20 kt
SIGMETs :   Divers  Orages  Givrage  Turbulence  Onde Orograph.  Cendres Volcan.






- Altitude de l'aérodrome : 100 ft
- Code IATA : DCI


LIED - Decimomannu Air Base

DERNIER METAR :
  • 180755Z 10005KT 9999 FEW020CB SCT025 10/07 Q1013 RMK SCT VIS MIN 9999 WIND THR35 11005KT WIND THR17 11005KT BLU

METARs EXPIRÉS :
  • 180655Z 08002KT 9999 FEW020TCU BKN025 08/05 Q1013 RMK OVC VIS MIN 9999 WIND THR35 11002KT WIND THR17 08002KT BLU
  • 180555Z 08003KT 9999 -RA FEW020TCU BKN025 07/04 Q1013 RMK BKN VIS MIN 9999 WIND THR35 08004KT WIND THR17 06003KT BLU

TAF TAF LIED
Valide du 18 à 06h jusqu'au 18 à 15h UTC


180500Z 1806/1815 15007KT 9999 SCT020 SCT040
TEMPO 1806/1812 4000 SHRA FEW015CB BKN020
BECMG 1810/1812 32012KT



MET'MAP, la Météo Aéronautique d'un coup d'oeil ! - Copyright ORBIFLY Décembre 2007 - Disclaimer

ORBIFLY MET'MAP TEAM :

Programmation & Développement : Alexandra Zaïnal
Sur une idée originale de : Baudouin d'Aumeries
Assistance à la programmation : Marc-Olivier Méhu
Soutien technique & logistique : Manuel Goepfert

Contact : metmap@orbifly.com




SOURCES & CREDITS :

   NOAA